createdAt,value
2022-11-04T00:00:52.000Z,0
2022-11-04T00:02:08.000Z,0
2022-11-04T00:03:25.000Z,0
2022-11-04T00:04:41.000Z,0
2022-11-04T00:05:57.000Z,0
2022-11-04T00:07:13.000Z,0
2022-11-04T00:08:29.000Z,0
2022-11-04T00:09:46.000Z,0
2022-11-04T00:11:02.000Z,0
2022-11-04T00:12:18.000Z,0
2022-11-04T00:13:33.000Z,0
2022-11-04T00:14:49.000Z,0
2022-11-04T00:16:06.000Z,0
2022-11-04T00:17:22.000Z,0
2022-11-04T00:18:38.000Z,0
2022-11-04T00:19:54.000Z,0
2022-11-04T00:21:10.000Z,0
2022-11-04T00:22:27.000Z,0
2022-11-04T00:23:43.000Z,0
2022-11-04T00:24:59.000Z,0
2022-11-04T00:26:15.000Z,0
2022-11-04T00:27:31.000Z,0
2022-11-04T00:28:47.000Z,0
2022-11-04T00:30:03.000Z,0
2022-11-04T00:31:19.000Z,0
2022-11-04T00:32:35.000Z,0
2022-11-04T00:33:51.000Z,0
2022-11-04T00:35:07.000Z,0
2022-11-04T00:36:24.000Z,0
2022-11-04T00:37:40.000Z,0
2022-11-04T00:38:56.000Z,0
2022-11-04T00:40:12.000Z,0
2022-11-04T00:41:28.000Z,0
2022-11-04T00:42:45.000Z,0
2022-11-04T00:44:01.000Z,0
2022-11-04T00:45:17.000Z,0
2022-11-04T00:46:32.000Z,0
2022-11-04T00:47:48.000Z,0
2022-11-04T00:49:05.000Z,0
2022-11-04T00:50:21.000Z,0
2022-11-04T00:51:37.000Z,0
2022-11-04T00:52:53.000Z,0
2022-11-04T00:54:09.000Z,0
2022-11-04T00:55:25.000Z,0
2022-11-04T00:56:42.000Z,0
2022-11-04T00:57:58.000Z,0
2022-11-04T00:59:14.000Z,0
2022-11-04T01:00:30.000Z,0
2022-11-04T01:01:46.000Z,0
2022-11-04T01:03:02.000Z,0
2022-11-04T01:04:18.000Z,0
2022-11-04T01:05:34.000Z,0
2022-11-04T01:06:50.000Z,0
2022-11-04T01:08:06.000Z,0
2022-11-04T01:09:23.000Z,0
2022-11-04T01:10:39.000Z,0
2022-11-04T01:11:55.000Z,0
2022-11-04T01:13:11.000Z,0
2022-11-04T01:14:27.000Z,0
2022-11-04T01:15:44.238Z,0
2022-11-04T01:17:00.000Z,0
2022-11-04T01:18:16.000Z,0
2022-11-04T01:19:31.000Z,0
2022-11-04T01:20:47.000Z,0
2022-11-04T01:22:03.970Z,0
2022-11-04T01:23:20.000Z,0
2022-11-04T01:24:36.000Z,0
2022-11-04T01:25:52.000Z,0
2022-11-04T01:27:08.000Z,0
2022-11-04T01:28:24.000Z,0
2022-11-04T01:29:41.000Z,0
2022-11-04T01:30:57.000Z,0
2022-11-04T01:32:13.000Z,0
2022-11-04T01:33:29.000Z,0
2022-11-04T01:34:45.000Z,0
2022-11-04T01:36:01.000Z,0
2022-11-04T01:37:17.000Z,0
2022-11-04T01:38:33.000Z,0
2022-11-04T01:39:49.000Z,0
2022-11-04T01:41:05.000Z,0
2022-11-04T01:42:22.000Z,0
2022-11-04T01:43:38.000Z,0
2022-11-04T01:44:54.000Z,0
2022-11-04T01:46:10.000Z,0
2022-11-04T01:47:26.000Z,0
2022-11-04T01:48:42.000Z,0
2022-11-04T01:49:59.000Z,0
2022-11-04T01:51:15.000Z,0
2022-11-04T01:52:30.000Z,0
2022-11-04T01:53:46.000Z,0
2022-11-04T01:55:02.000Z,0
2022-11-04T01:56:19.000Z,0
2022-11-04T01:57:35.000Z,0
2022-11-04T01:58:51.000Z,0
2022-11-04T02:00:07.000Z,0
2022-11-04T02:01:23.000Z,0
2022-11-04T02:02:40.000Z,0
2022-11-04T02:03:56.000Z,0
2022-11-04T02:05:12.000Z,0
2022-11-04T02:06:28.000Z,0
2022-11-04T02:07:44.000Z,0
2022-11-04T02:08:59.000Z,0
2022-11-04T02:10:16.000Z,0
2022-11-04T02:11:32.000Z,0
2022-11-04T02:12:48.000Z,0
2022-11-04T02:14:04.000Z,0
2022-11-04T02:15:20.000Z,0
2022-11-04T02:16:37.000Z,0
2022-11-04T02:17:53.000Z,0
2022-11-04T02:19:09.000Z,0
2022-11-04T02:20:25.000Z,0
2022-11-04T02:21:41.000Z,0
2022-11-04T02:22:58.000Z,0
2022-11-04T02:24:14.000Z,0
2022-11-04T02:25:30.000Z,0
2022-11-04T02:26:45.000Z,0
2022-11-04T02:28:01.000Z,0
2022-11-04T02:29:17.000Z,0
2022-11-04T02:30:34.000Z,0
2022-11-04T02:31:50.000Z,0
2022-11-04T02:33:06.000Z,0
2022-11-04T02:34:22.000Z,0
2022-11-04T02:35:38.000Z,0
2022-11-04T02:36:55.000Z,0
2022-11-04T02:38:11.000Z,0
2022-11-04T02:39:27.000Z,0
2022-11-04T02:40:43.000Z,0
2022-11-04T02:41:59.000Z,0
2022-11-04T02:43:15.000Z,0
2022-11-04T02:44:31.000Z,0
2022-11-04T02:45:47.000Z,0
2022-11-04T02:47:03.000Z,0
2022-11-04T02:48:19.000Z,0
2022-11-04T02:49:36.000Z,0
2022-11-04T02:50:52.000Z,0
2022-11-04T02:52:08.000Z,0
2022-11-04T02:53:24.000Z,0
2022-11-04T02:54:40.000Z,0
2022-11-04T02:55:56.000Z,0
2022-11-04T02:57:13.000Z,0
2022-11-04T02:58:29.000Z,0
2022-11-04T02:59:44.000Z,0
2022-11-04T03:01:00.000Z,0
2022-11-04T03:02:16.000Z,0
2022-11-04T03:03:33.000Z,0
2022-11-04T03:04:49.000Z,0
2022-11-04T03:06:05.000Z,0
2022-11-04T03:07:21.000Z,0
2022-11-04T03:08:37.000Z,0
2022-11-04T03:09:54.000Z,0
2022-11-04T03:11:10.000Z,0
2022-11-04T03:12:26.000Z,0
2022-11-04T03:13:42.000Z,0
2022-11-04T03:14:58.000Z,0
2022-11-04T03:16:13.000Z,0
2022-11-04T03:17:30.000Z,0
2022-11-04T03:18:46.000Z,0
2022-11-04T03:20:02.000Z,0
2022-11-04T03:21:18.000Z,0
2022-11-04T03:22:33.000Z,0
2022-11-04T03:23:50.000Z,0
2022-11-04T03:25:06.000Z,0
2022-11-04T03:26:22.000Z,0
2022-11-04T03:27:38.000Z,0
2022-11-04T03:28:54.000Z,0
2022-11-04T03:30:11.000Z,0
2022-11-04T03:31:27.000Z,0
2022-11-04T03:32:43.000Z,0
2022-11-04T03:33:59.000Z,0
2022-11-04T03:35:15.000Z,0
2022-11-04T03:36:31.000Z,0
2022-11-04T03:37:48.000Z,0
2022-11-04T03:39:03.000Z,0
2022-11-04T03:40:19.000Z,0
2022-11-04T03:41:35.000Z,0
2022-11-04T03:42:51.000Z,0
2022-11-04T03:44:08.000Z,0
2022-11-04T03:45:24.000Z,0
2022-11-04T03:46:40.000Z,0
2022-11-04T03:47:56.000Z,0
2022-11-04T03:49:12.000Z,0
2022-11-04T03:50:29.000Z,0
2022-11-04T03:51:45.000Z,0
2022-11-04T03:53:01.000Z,0
2022-11-04T03:54:17.000Z,0
2022-11-04T03:55:32.000Z,0
2022-11-04T03:56:49.000Z,0
2022-11-04T03:59:21.000Z,0
2022-11-04T04:00:37.000Z,0
2022-11-04T04:01:53.000Z,0
2022-11-04T04:03:09.000Z,0
2022-11-04T04:04:26.000Z,0
2022-11-04T04:05:42.000Z,0
2022-11-04T04:06:58.000Z,0
2022-11-04T04:08:14.000Z,0
2022-11-04T04:09:30.000Z,0
2022-11-04T04:10:47.000Z,0
2022-11-04T04:12:02.000Z,0
2022-11-04T04:13:18.000Z,0
2022-11-04T04:14:34.000Z,0
2022-11-04T04:15:50.000Z,0
2022-11-04T04:17:07.000Z,0
2022-11-04T04:18:23.000Z,0
2022-11-04T04:19:39.000Z,0
2022-11-04T04:20:55.000Z,0
2022-11-04T04:22:11.000Z,0
2022-11-04T04:23:27.000Z,0
2022-11-04T04:24:44.000Z,0
2022-11-04T04:26:00.000Z,0
2022-11-04T04:27:16.000Z,0
2022-11-04T04:28:31.000Z,0
2022-11-04T04:29:47.000Z,0
2022-11-04T04:31:04.000Z,0
2022-11-04T04:32:20.000Z,0
2022-11-04T04:33:36.000Z,0
2022-11-04T04:34:52.000Z,0
2022-11-04T04:36:08.000Z,0
2022-11-04T04:37:25.000Z,0
2022-11-04T04:38:41.000Z,0
2022-11-04T04:39:57.000Z,0
2022-11-04T04:41:13.000Z,0
2022-11-04T04:42:29.000Z,0
2022-11-04T04:43:45.000Z,0
2022-11-04T04:45:01.000Z,0
2022-11-04T04:46:17.000Z,0
2022-11-04T04:47:33.000Z,0
2022-11-04T04:48:49.000Z,0
2022-11-04T04:50:05.000Z,0
2022-11-04T04:51:22.000Z,0
2022-11-04T04:52:38.000Z,0
2022-11-04T04:53:54.000Z,0
2022-11-04T04:55:10.000Z,0
2022-11-04T04:56:26.000Z,0
2022-11-04T04:57:43.000Z,0
2022-11-04T04:58:59.000Z,0
2022-11-04T05:00:15.000Z,0
2022-11-04T05:01:30.000Z,0
2022-11-04T05:02:46.000Z,0
2022-11-04T05:04:03.000Z,0
2022-11-04T05:05:19.000Z,0
2022-11-04T05:06:35.000Z,0
2022-11-04T05:07:51.000Z,0
2022-11-04T05:09:07.000Z,0
2022-11-04T05:10:23.000Z,0
2022-11-04T05:11:40.000Z,0
2022-11-04T05:12:56.000Z,0
2022-11-04T05:14:12.000Z,0
2022-11-04T05:15:28.000Z,0
2022-11-04T05:16:44.000Z,0
2022-11-04T05:18:00.000Z,0
2022-11-04T05:19:16.000Z,0
2022-11-04T05:20:32.000Z,0
2022-11-04T05:21:48.000Z,0
2022-11-04T05:23:04.000Z,0
2022-11-04T05:24:21.000Z,0
2022-11-04T05:25:37.000Z,0
2022-11-04T05:26:53.000Z,0
2022-11-04T05:28:09.000Z,0
2022-11-04T05:29:25.000Z,0
2022-11-04T05:30:41.000Z,0
2022-11-04T05:31:58.000Z,0
2022-11-04T05:33:14.000Z,0
2022-11-04T05:34:29.000Z,0
2022-11-04T05:35:45.000Z,0
2022-11-04T05:37:01.000Z,0
2022-11-04T05:38:18.000Z,0
2022-11-04T05:39:34.000Z,0
2022-11-04T05:40:50.000Z,0
2022-11-04T05:42:06.000Z,0
2022-11-04T05:43:22.000Z,0
2022-11-04T05:44:39.000Z,0
2022-11-04T05:45:55.000Z,0
2022-11-04T05:47:11.000Z,0
2022-11-04T05:48:27.000Z,0
2022-11-04T05:49:43.000Z,0
2022-11-04T05:50:59.000Z,0
2022-11-04T05:52:15.000Z,0
2022-11-04T05:53:31.000Z,0
2022-11-04T05:54:47.000Z,0
2022-11-04T05:56:03.000Z,0
2022-11-04T05:57:19.000Z,0
2022-11-04T05:58:36.000Z,0
2022-11-04T05:59:52.000Z,0
2022-11-04T06:01:08.000Z,0
2022-11-04T06:02:24.000Z,4
2022-11-04T06:03:40.000Z,4
2022-11-04T06:04:57.000Z,4
2022-11-04T06:06:13.000Z,8
2022-11-04T06:07:28.000Z,4
2022-11-04T06:08:44.000Z,4
2022-11-04T06:10:00.000Z,8
2022-11-04T06:11:17.000Z,12
2022-11-04T06:12:33.000Z,12
2022-11-04T06:13:49.000Z,20
2022-11-04T06:15:05.000Z,20
2022-11-04T06:16:21.000Z,20
2022-11-04T06:17:37.000Z,24
2022-11-04T06:18:54.000Z,28
2022-11-04T06:20:10.000Z,44
2022-11-04T06:21:26.000Z,44
2022-11-04T06:22:42.000Z,52
2022-11-04T06:23:57.000Z,56
2022-11-04T06:25:14.000Z,60
2022-11-04T06:26:30.000Z,64
2022-11-04T06:27:46.000Z,68
2022-11-04T06:29:02.000Z,88
2022-11-04T06:30:18.000Z,96
2022-11-04T06:31:35.000Z,112
2022-11-04T06:32:51.000Z,116
2022-11-04T06:34:07.000Z,120
2022-11-04T06:35:23.000Z,112
2022-11-04T06:36:39.000Z,124
2022-11-04T06:37:55.000Z,160
2022-11-04T06:39:12.000Z,168
2022-11-04T06:40:27.000Z,204
2022-11-04T06:41:43.000Z,224
2022-11-04T06:42:59.000Z,240
2022-11-04T06:44:15.000Z,276
2022-11-04T06:45:32.000Z,288
2022-11-04T06:46:48.000Z,312
2022-11-04T06:48:04.000Z,332
2022-11-04T06:49:20.000Z,344
2022-11-04T06:50:36.000Z,368
2022-11-04T06:51:53.000Z,368
2022-11-04T06:53:09.000Z,368
2022-11-04T06:54:25.000Z,400
2022-11-04T06:55:41.000Z,416
2022-11-04T06:56:56.000Z,420
2022-11-04T06:58:13.000Z,420
2022-11-04T06:59:29.000Z,452
2022-11-04T07:00:45.000Z,484
2022-11-04T07:02:01.000Z,504
2022-11-04T07:03:17.000Z,508
2022-11-04T07:04:33.000Z,548
2022-11-04T07:05:50.000Z,628
2022-11-04T07:07:06.000Z,632
2022-11-04T07:08:22.000Z,692
2022-11-04T07:09:38.000Z,776
2022-11-04T07:10:54.000Z,800
2022-11-04T07:12:11.000Z,824
2022-11-04T07:13:26.000Z,900
2022-11-04T07:14:42.000Z,928
2022-11-04T07:15:58.000Z,1120
2022-11-04T07:17:14.000Z,1176
2022-11-04T07:18:31.000Z,1200
2022-11-04T07:19:47.000Z,1100
2022-11-04T07:21:03.000Z,1144
2022-11-04T07:22:19.000Z,1228
2022-11-04T07:23:35.000Z,1304
2022-11-04T07:24:51.000Z,1296
2022-11-04T07:26:08.000Z,1376
2022-11-04T07:27:24.000Z,1216
2022-11-04T07:28:40.000Z,1236
2022-11-04T07:29:55.000Z,1096
2022-11-04T07:31:12.151Z,1008
2022-11-04T07:32:28.000Z,1064
2022-11-04T07:33:44.000Z,892
2022-11-04T07:35:00.000Z,900
2022-11-04T07:36:16.000Z,1144
2022-11-04T07:37:31.000Z,916
2022-11-04T07:38:48.000Z,984
2022-11-04T07:40:04.000Z,1036
2022-11-04T07:41:20.000Z,908
2022-11-04T07:42:36.000Z,996
2022-11-04T07:43:52.000Z,1064
2022-11-04T07:45:09.000Z,1064
2022-11-04T07:46:25.000Z,1224
2022-11-04T07:47:41.000Z,1336
2022-11-04T07:48:57.000Z,1360
2022-11-04T07:50:13.000Z,1516
2022-11-04T07:51:29.000Z,1588
2022-11-04T07:52:46.000Z,1572
2022-11-04T07:54:01.000Z,1716
2022-11-04T07:55:17.000Z,1748
2022-11-04T07:56:33.000Z,1668
2022-11-04T07:57:49.000Z,1608
2022-11-04T07:59:06.000Z,1740
2022-11-04T08:00:22.000Z,1876
2022-11-04T08:01:38.000Z,2132
2022-11-04T08:02:54.000Z,2384
2022-11-04T08:04:10.000Z,2608
2022-11-04T08:05:27.000Z,2720
2022-11-04T08:06:43.000Z,2804
2022-11-04T08:07:59.000Z,2644
2022-11-04T08:09:15.000Z,2804
2022-11-04T08:10:30.000Z,2672
2022-11-04T08:11:46.000Z,2560
2022-11-04T08:13:03.000Z,2520
2022-11-04T08:14:19.000Z,2516
2022-11-04T08:15:35.000Z,2456
2022-11-04T08:16:51.000Z,2416
2022-11-04T08:18:07.000Z,2376
2022-11-04T08:19:24.000Z,2420
2022-11-04T08:20:40.000Z,2504
2022-11-04T08:21:56.474Z,2524
2022-11-04T08:23:12.000Z,2600
2022-11-04T08:24:28.000Z,2632
2022-11-04T08:25:45.000Z,2640
2022-11-04T08:27:00.000Z,2604
2022-11-04T08:28:16.000Z,2532
2022-11-04T08:29:32.000Z,2548
2022-11-04T08:30:48.000Z,2660
2022-11-04T08:32:04.000Z,2880
2022-11-04T08:33:21.000Z,3144
2022-11-04T08:34:37.000Z,3184
2022-11-04T08:35:53.000Z,3072
2022-11-04T08:37:09.000Z,2952
2022-11-04T08:38:25.000Z,2868
2022-11-04T08:39:42.000Z,2812
2022-11-04T08:40:58.000Z,2792
2022-11-04T08:42:14.000Z,2876
2022-11-04T08:43:29.000Z,3088
2022-11-04T08:44:45.000Z,3548
2022-11-04T08:46:02.000Z,3540
2022-11-04T08:47:18.000Z,3580
2022-11-04T08:48:34.000Z,3328
2022-11-04T08:49:50.000Z,3524
2022-11-04T08:51:06.000Z,3576
2022-11-04T08:52:23.000Z,3508
2022-11-04T08:53:39.000Z,3300
2022-11-04T08:54:55.000Z,3236
2022-11-04T08:56:11.000Z,3344
2022-11-04T08:57:27.000Z,3400
2022-11-04T08:58:43.000Z,3416
2022-11-04T08:59:59.000Z,3536
2022-11-04T09:01:15.000Z,3688
2022-11-04T09:02:31.000Z,3884
2022-11-04T09:03:47.000Z,3816
2022-11-04T09:05:03.000Z,3892
2022-11-04T09:06:20.000Z,3968
2022-11-04T09:07:36.000Z,4220
2022-11-04T09:08:52.000Z,4892
2022-11-04T09:10:08.000Z,4560
2022-11-04T09:11:24.000Z,4312
2022-11-04T09:12:41.000Z,4240
2022-11-04T09:13:57.000Z,4148
2022-11-04T09:15:13.000Z,4168
2022-11-04T09:16:28.000Z,4252
2022-11-04T09:17:44.000Z,4332
2022-11-04T09:19:00.000Z,4396
2022-11-04T09:20:17.000Z,4420
2022-11-04T09:21:33.000Z,4632
2022-11-04T09:22:49.000Z,4608
2022-11-04T09:24:05.000Z,4704
2022-11-04T09:25:21.000Z,4864
2022-11-04T09:26:38.000Z,5244
2022-11-04T09:27:54.000Z,7436
2022-11-04T09:29:10.000Z,17984
2022-11-04T09:30:26.000Z,20640
2022-11-04T09:31:42.000Z,19360
2022-11-04T09:32:58.000Z,14960
2022-11-04T09:34:14.000Z,10656
2022-11-04T09:35:30.000Z,10852
2022-11-04T09:36:46.000Z,16640
2022-11-04T09:38:02.000Z,13208
2022-11-04T09:39:18.000Z,12588
2022-11-04T09:40:35.000Z,16448
2022-11-04T09:41:51.000Z,11452
2022-11-04T09:43:07.000Z,18912
2022-11-04T09:44:23.000Z,14136
2022-11-04T09:45:39.000Z,5460
2022-11-04T09:46:56.000Z,15352
2022-11-04T09:48:12.000Z,11536
2022-11-04T09:49:27.000Z,12140
2022-11-04T09:50:43.000Z,11188
2022-11-04T09:51:59.000Z,8536
2022-11-04T09:53:16.000Z,6040
2022-11-04T09:54:32.000Z,10276
2022-11-04T09:55:48.000Z,5428
2022-11-04T09:57:04.000Z,6420
2022-11-04T09:58:20.000Z,6116
2022-11-04T09:59:36.000Z,4736
2022-11-04T10:00:53.000Z,4172
2022-11-04T10:02:09.000Z,4464
2022-11-04T10:03:25.000Z,5960
2022-11-04T10:04:41.000Z,5844
2022-11-04T10:05:56.000Z,5072
2022-11-04T10:07:13.000Z,13480
2022-11-04T10:08:29.000Z,6124
2022-11-04T10:09:45.000Z,11968
2022-11-04T10:11:01.000Z,12796
2022-11-04T10:12:17.000Z,13472
2022-11-04T10:13:34.000Z,9368
2022-11-04T10:14:50.000Z,15660
2022-11-04T10:16:06.000Z,19936
2022-11-04T10:17:22.000Z,26016
2022-11-04T10:18:38.000Z,23136
2022-11-04T10:19:55.000Z,21376
2022-11-04T10:21:11.000Z,23104
2022-11-04T10:22:26.000Z,31648
2022-11-04T10:23:42.000Z,31424
2022-11-04T10:24:58.000Z,31168
2022-11-04T10:26:14.000Z,31584
2022-11-04T10:27:31.000Z,26752
2022-11-04T10:28:47.000Z,11116
2022-11-04T10:30:03.000Z,11244
2022-11-04T10:31:19.000Z,29568
2022-11-04T10:32:35.000Z,31488
2022-11-04T10:33:52.000Z,29536
2022-11-04T10:35:08.000Z,32096
2022-11-04T10:36:24.000Z,26784
2022-11-04T10:37:40.000Z,16704
2022-11-04T10:38:55.000Z,15540
2022-11-04T10:40:12.000Z,8420
2022-11-04T10:41:28.000Z,6996
2022-11-04T10:42:44.000Z,7476
2022-11-04T10:44:00.000Z,8104
2022-11-04T10:45:16.000Z,6508
2022-11-04T10:46:32.000Z,7648
2022-11-04T10:47:49.000Z,9520
2022-11-04T10:49:05.000Z,8928
2022-11-04T10:50:21.000Z,11920
2022-11-04T10:51:37.000Z,7412
2022-11-04T10:52:53.000Z,7304
2022-11-04T10:54:10.000Z,5544
2022-11-04T10:55:25.000Z,17120
2022-11-04T10:56:41.000Z,20320
2022-11-04T10:57:57.000Z,17568
2022-11-04T10:59:13.000Z,12304
2022-11-04T11:00:30.000Z,11124
2022-11-04T11:01:46.000Z,13032
2022-11-04T11:03:02.000Z,11624
2022-11-04T11:04:18.000Z,9244
2022-11-04T11:05:34.000Z,8244
2022-11-04T11:06:50.000Z,7804
2022-11-04T11:08:07.000Z,7880
2022-11-04T11:09:23.000Z,7488
2022-11-04T11:10:39.000Z,7460
2022-11-04T11:11:54.000Z,7548
2022-11-04T11:13:10.000Z,7600
2022-11-04T11:14:27.000Z,7744
2022-11-04T11:15:43.000Z,7732
2022-11-04T11:16:59.000Z,7440
2022-11-04T11:18:15.000Z,8084
2022-11-04T11:19:31.000Z,8132
2022-11-04T11:20:48.000Z,7684
2022-11-04T11:22:04.000Z,6412
2022-11-04T11:23:20.000Z,7836
2022-11-04T11:24:36.000Z,8284
2022-11-04T11:25:52.000Z,8052
2022-11-04T11:27:09.000Z,7672
2022-11-04T11:28:24.000Z,6004
2022-11-04T11:29:40.000Z,7504
2022-11-04T11:30:56.000Z,6072
2022-11-04T11:32:12.000Z,6960
2022-11-04T11:33:28.000Z,8324
2022-11-04T11:34:45.000Z,8084
2022-11-04T11:36:01.000Z,7168
2022-11-04T11:37:17.000Z,7080
2022-11-04T11:38:33.000Z,6772
2022-11-04T11:39:49.000Z,7108
2022-11-04T11:41:06.000Z,6448
2022-11-04T11:42:22.000Z,6040
2022-11-04T11:43:38.000Z,6820
2022-11-04T11:44:53.000Z,7608
2022-11-04T11:46:09.000Z,4956
2022-11-04T11:47:26.000Z,4524
2022-11-04T11:48:42.000Z,5068
2022-11-04T11:49:58.000Z,6308
2022-11-04T11:51:14.000Z,6100
2022-11-04T11:52:29.000Z,7724
2022-11-04T11:53:46.000Z,9260
2022-11-04T11:55:02.000Z,10932
2022-11-04T11:56:18.000Z,11204
2022-11-04T11:57:34.000Z,11344
2022-11-04T11:58:50.000Z,11160
2022-11-04T12:00:06.000Z,11140
2022-11-04T12:01:23.000Z,11436
2022-11-04T12:02:39.000Z,11924
2022-11-04T12:03:55.000Z,12104
2022-11-04T12:05:11.000Z,12284
2022-11-04T12:06:27.000Z,12212
2022-11-04T12:07:44.000Z,12372
2022-11-04T12:08:59.000Z,11824
2022-11-04T12:10:15.000Z,11644
2022-11-04T12:11:31.000Z,12800
2022-11-04T12:12:47.000Z,13488
2022-11-04T12:14:04.000Z,13752
2022-11-04T12:15:20.000Z,13796
2022-11-04T12:16:36.000Z,13824
2022-11-04T12:17:52.000Z,13748
2022-11-04T12:19:08.000Z,13732
2022-11-04T12:20:25.000Z,12276
2022-11-04T12:21:41.000Z,11796
2022-11-04T12:22:57.000Z,11332
2022-11-04T12:24:13.000Z,10944
2022-11-04T12:25:28.000Z,10772
2022-11-04T12:26:44.000Z,10960
2022-11-04T12:28:01.000Z,11136
2022-11-04T12:29:17.000Z,11404
2022-11-04T12:30:33.000Z,11792
2022-11-04T12:31:49.000Z,11960
2022-11-04T12:33:05.000Z,10972
2022-11-04T12:34:22.000Z,10776
2022-11-04T12:35:38.000Z,10612
2022-11-04T12:36:54.000Z,10792
2022-11-04T12:38:10.000Z,10424
2022-11-04T12:39:26.000Z,11900
2022-11-04T12:40:43.000Z,9424
2022-11-04T12:41:58.000Z,12156
2022-11-04T12:43:14.000Z,13284
2022-11-04T12:44:30.000Z,15388
2022-11-04T12:45:46.000Z,10704
2022-11-04T12:47:02.000Z,16480
2022-11-04T12:48:19.000Z,15904
2022-11-04T12:49:35.000Z,8956
2022-11-04T12:50:51.000Z,9144
2022-11-04T12:52:07.000Z,14692
2022-11-04T12:53:23.000Z,14520
2022-11-04T12:54:40.000Z,10068
2022-11-04T12:55:56.000Z,9448
2022-11-04T12:57:12.000Z,15840
2022-11-04T12:58:27.000Z,13784
2022-11-04T12:59:43.000Z,15272
2022-11-04T13:01:00.000Z,17696
2022-11-04T13:02:16.000Z,9832
2022-11-04T13:03:32.000Z,8936
2022-11-04T13:04:48.000Z,8148
2022-11-04T13:06:04.000Z,7328
2022-11-04T13:07:21.000Z,6472
2022-11-04T13:08:37.000Z,5548
2022-11-04T13:09:53.000Z,4792
2022-11-04T13:11:09.000Z,4672
2022-11-04T13:12:25.000Z,7372
2022-11-04T13:13:41.000Z,5680
2022-11-04T13:14:57.000Z,5268
2022-11-04T13:16:13.000Z,5304
2022-11-04T13:17:29.000Z,6656
2022-11-04T13:18:45.000Z,11568
2022-11-04T13:20:01.000Z,12288
2022-11-04T13:21:18.000Z,13180
2022-11-04T13:22:34.000Z,13916
2022-11-04T13:23:50.000Z,13684
2022-11-04T13:25:06.000Z,12796
2022-11-04T13:26:22.000Z,5020
2022-11-04T13:27:39.000Z,4576
2022-11-04T13:28:55.000Z,4392
2022-11-04T13:30:11.000Z,4656
2022-11-04T13:31:26.000Z,4352
2022-11-04T13:32:42.000Z,4452
2022-11-04T13:33:59.000Z,4408
2022-11-04T13:35:15.000Z,4764
2022-11-04T13:36:31.000Z,7920
2022-11-04T13:37:47.000Z,11300
2022-11-04T13:39:03.000Z,9480
2022-11-04T13:40:19.000Z,8660
2022-11-04T13:41:36.000Z,4876
2022-11-04T13:42:52.000Z,3900
2022-11-04T13:44:08.000Z,3948
2022-11-04T13:45:24.000Z,6212
2022-11-04T13:46:40.000Z,3052
2022-11-04T13:47:56.000Z,3192
2022-11-04T13:49:12.000Z,3568
2022-11-04T13:50:28.000Z,4200
2022-11-04T13:51:44.000Z,5064
2022-11-04T13:53:00.000Z,7088
2022-11-04T13:54:17.000Z,12288
2022-11-04T13:55:33.000Z,8356
2022-11-04T13:56:49.000Z,5652
2022-11-04T13:58:05.000Z,5152
2022-11-04T13:59:21.000Z,4852
2022-11-04T14:00:37.000Z,4748
2022-11-04T14:01:54.000Z,4600
2022-11-04T14:03:10.000Z,4588
2022-11-04T14:04:25.000Z,4548
2022-11-04T14:05:41.000Z,4520
2022-11-04T14:06:57.000Z,4552
2022-11-04T14:08:14.000Z,4580
2022-11-04T14:09:30.000Z,4548
2022-11-04T14:10:46.000Z,4304
2022-11-04T14:12:02.000Z,3952
2022-11-04T14:13:18.000Z,3524
2022-11-04T14:14:35.000Z,3104
2022-11-04T14:15:51.000Z,2644
2022-11-04T14:17:07.000Z,2252
2022-11-04T14:18:23.000Z,1928
2022-11-04T14:19:39.000Z,1672
2022-11-04T14:20:55.000Z,1484
2022-11-04T14:22:11.000Z,1356
2022-11-04T14:23:27.000Z,1280
2022-11-04T14:24:43.000Z,1220
2022-11-04T14:25:59.000Z,1164
2022-11-04T14:27:15.000Z,1092
2022-11-04T14:28:32.000Z,1008
2022-11-04T14:29:48.000Z,920
2022-11-04T14:31:04.000Z,864
2022-11-04T14:32:20.000Z,892
2022-11-04T14:33:36.000Z,964
2022-11-04T14:34:53.000Z,936
2022-11-04T14:36:09.000Z,936
2022-11-04T14:37:24.000Z,964
2022-11-04T14:38:40.000Z,984
2022-11-04T14:39:56.000Z,988
2022-11-04T14:41:13.000Z,976
2022-11-04T14:42:29.000Z,952
2022-11-04T14:43:45.000Z,944
2022-11-04T14:45:01.000Z,968
2022-11-04T14:46:17.000Z,1008
2022-11-04T14:47:34.000Z,1048
2022-11-04T14:48:50.000Z,1076
2022-11-04T14:50:06.000Z,1076
2022-11-04T14:51:22.000Z,1064
2022-11-04T14:52:38.000Z,1072
2022-11-04T14:53:53.000Z,1104
2022-11-04T14:55:10.000Z,1128
2022-11-04T14:56:26.000Z,1144
2022-11-04T14:57:42.000Z,1152
2022-11-04T14:58:58.000Z,1156
2022-11-04T15:00:14.000Z,1136
2022-11-04T15:01:31.000Z,1124
2022-11-04T15:02:47.000Z,1104
2022-11-04T15:04:03.000Z,1088
2022-11-04T15:05:19.000Z,1080
2022-11-04T15:06:35.000Z,1068
2022-11-04T15:07:52.000Z,1056
2022-11-04T15:09:08.000Z,1020
2022-11-04T15:10:23.000Z,972
2022-11-04T15:11:39.000Z,928
2022-11-04T15:12:55.000Z,904
2022-11-04T15:14:12.000Z,908
2022-11-04T15:15:28.000Z,936
2022-11-04T15:16:44.000Z,960
2022-11-04T15:18:00.000Z,972
2022-11-04T15:20:32.000Z,948
2022-11-04T15:21:49.000Z,928
2022-11-04T15:23:05.000Z,888
2022-11-04T15:24:21.000Z,824
2022-11-04T15:25:37.000Z,748
2022-11-04T15:26:52.000Z,684
2022-11-04T15:28:09.000Z,612
2022-11-04T15:29:25.000Z,544
2022-11-04T15:30:41.000Z,500
2022-11-04T15:31:57.660Z,468
2022-11-04T15:33:13.000Z,436
2022-11-04T15:34:30.000Z,416
2022-11-04T15:35:46.000Z,396
2022-11-04T15:37:02.000Z,372
2022-11-04T15:38:18.000Z,348
2022-11-04T15:39:34.000Z,336
2022-11-04T15:40:50.000Z,320
2022-11-04T15:42:07.000Z,308
2022-11-04T15:43:22.000Z,292
2022-11-04T15:44:38.000Z,276
2022-11-04T15:45:54.000Z,260
2022-11-04T15:47:10.000Z,240
2022-11-04T15:48:27.000Z,228
2022-11-04T15:49:43.000Z,208
2022-11-04T15:50:59.000Z,192
2022-11-04T15:52:15.000Z,180
2022-11-04T15:53:31.000Z,168
2022-11-04T15:54:48.000Z,160
2022-11-04T15:56:04.000Z,144
2022-11-04T15:57:20.000Z,132
2022-11-04T15:58:36.000Z,116
2022-11-04T15:59:51.000Z,104
2022-11-04T16:01:08.000Z,92
2022-11-04T16:02:24.000Z,76
2022-11-04T16:03:40.000Z,68
2022-11-04T16:04:56.000Z,56
2022-11-04T16:06:12.000Z,48
2022-11-04T16:07:28.000Z,44
2022-11-04T16:08:44.000Z,32
2022-11-04T16:10:00.000Z,28
2022-11-04T16:11:16.000Z,24
2022-11-04T16:12:32.000Z,24
2022-11-04T16:13:48.000Z,16
2022-11-04T16:15:05.000Z,16
2022-11-04T16:16:21.000Z,12
2022-11-04T16:17:37.000Z,8
2022-11-04T16:18:53.000Z,12
2022-11-04T16:20:09.000Z,8
2022-11-04T16:21:26.000Z,4
2022-11-04T16:22:42.000Z,4
2022-11-04T16:23:57.000Z,4
2022-11-04T16:25:13.000Z,0
2022-11-04T16:26:29.000Z,4
2022-11-04T16:27:46.000Z,4
2022-11-04T16:29:02.000Z,0
2022-11-04T16:30:18.000Z,0
2022-11-04T16:31:34.000Z,0
2022-11-04T16:32:50.000Z,0
2022-11-04T16:34:06.000Z,0
2022-11-04T16:35:23.000Z,0
2022-11-04T16:36:39.000Z,0
2022-11-04T16:37:55.000Z,0
2022-11-04T16:39:11.000Z,0
2022-11-04T16:40:26.000Z,0
2022-11-04T16:41:43.000Z,0
2022-11-04T16:42:59.000Z,0
2022-11-04T16:44:15.000Z,0
2022-11-04T16:45:31.000Z,0
2022-11-04T16:46:47.000Z,0
2022-11-04T16:48:04.000Z,0
2022-11-04T16:49:20.000Z,0
2022-11-04T16:50:36.000Z,0
2022-11-04T16:51:52.000Z,0
2022-11-04T16:53:08.000Z,0
2022-11-04T16:54:25.000Z,0
2022-11-04T16:55:41.000Z,0
2022-11-04T16:56:56.000Z,0
2022-11-04T16:58:12.000Z,0
2022-11-04T16:59:28.000Z,0
2022-11-04T17:00:44.000Z,0
2022-11-04T17:02:01.000Z,0
2022-11-04T17:03:17.000Z,0
2022-11-04T17:04:33.000Z,0
2022-11-04T17:05:49.000Z,0
2022-11-04T17:07:05.000Z,0
2022-11-04T17:08:22.000Z,0
2022-11-04T17:09:38.000Z,0
2022-11-04T17:10:54.000Z,0
2022-11-04T17:12:10.000Z,0
2022-11-04T17:13:25.000Z,0
2022-11-04T17:14:42.000Z,0
2022-11-04T17:15:58.000Z,0
2022-11-04T17:17:14.000Z,0
2022-11-04T17:18:30.000Z,0
2022-11-04T17:19:46.000Z,0
2022-11-04T17:21:03.000Z,0
2022-11-04T17:22:19.000Z,0
2022-11-04T17:23:35.000Z,0
2022-11-04T17:24:51.000Z,0
2022-11-04T17:26:07.000Z,0
2022-11-04T17:27:23.000Z,0
2022-11-04T17:28:40.000Z,0
2022-11-04T17:29:55.000Z,0
2022-11-04T17:31:11.000Z,0
2022-11-04T17:32:27.000Z,0
2022-11-04T17:33:43.000Z,0
2022-11-04T17:35:00.000Z,0
2022-11-04T17:36:16.000Z,0
2022-11-04T17:37:32.000Z,0
2022-11-04T17:38:48.000Z,0
2022-11-04T17:40:04.000Z,0
2022-11-04T17:41:21.000Z,0
2022-11-04T17:42:37.000Z,0